sensor_id;sensor_type;location;lat;lon;timestamp;pressure;altitude;pressure_sealevel;temperature;humidity
6899;BME280;3488;42.616;23.350;2022-11-21T00:00:06;63060.72;;;10.33;100.00
6899;BME280;3488;42.616;23.350;2022-11-21T00:02:33;63061.72;;;10.31;100.00
6899;BME280;3488;42.616;23.350;2022-11-21T00:05:00;63056.47;;;10.24;100.00
6899;BME280;3488;42.616;23.350;2022-11-21T00:07:26;63048.25;;;10.18;100.00
6899;BME280;3488;42.616;23.350;2022-11-21T00:09:53;63043.06;;;10.13;100.00
6899;BME280;3488;42.616;23.350;2022-11-21T00:12:21;63054.97;;;10.25;100.00
6899;BME280;3488;42.616;23.350;2022-11-21T00:14:48;63057.63;;;10.30;100.00
6899;BME280;3488;42.616;23.350;2022-11-21T00:17:15;63065.34;;;10.37;100.00
6899;BME280;3488;42.616;23.350;2022-11-21T00:19:42;63077.22;;;10.46;100.00
6899;BME280;3488;42.616;23.350;2022-11-21T00:22:09;63069.97;;;10.39;100.00
6899;BME280;3488;42.616;23.350;2022-11-21T00:24:36;63088.63;;;10.58;100.00
6899;BME280;3488;42.616;23.350;2022-11-21T00:27:03;63092.19;;;10.59;100.00
6899;BME280;3488;42.616;23.350;2022-11-21T00:29:32;63097.41;;;10.66;100.00
6899;BME280;3488;42.616;23.350;2022-11-21T00:31:59;63095.28;;;10.62;100.00
6899;BME280;3488;42.616;23.350;2022-11-21T00:34:25;63080.31;;;10.49;100.00
6899;BME280;3488;42.616;23.350;2022-11-21T00:36:52;63062.72;;;10.32;100.00
6899;BME280;3488;42.616;23.350;2022-11-21T00:39:19;63084.41;;;10.51;100.00
6899;BME280;3488;42.616;23.350;2022-11-21T00:41:46;63095.34;;;10.64;100.00
6899;BME280;3488;42.616;23.350;2022-11-21T00:44:13;63116.09;;;10.87;100.00
6899;BME280;3488;42.616;23.350;2022-11-21T00:46:41;63133.13;;;11.01;100.00
6899;BME280;3488;42.616;23.350;2022-11-21T00:49:08;63140.38;;;11.08;100.00
6899;BME280;3488;42.616;23.350;2022-11-21T00:51:35;63150.75;;;11.20;100.00
6899;BME280;3488;42.616;23.350;2022-11-21T00:54:01;63170.34;;;11.32;100.00
6899;BME280;3488;42.616;23.350;2022-11-21T00:56:28;63169.88;;;11.36;100.00
6899;BME280;3488;42.616;23.350;2022-11-21T00:58:55;63169.38;;;11.36;100.00
6899;BME280;3488;42.616;23.350;2022-11-21T01:01:22;63166.25;;;11.33;100.00
6899;BME280;3488;42.616;23.350;2022-11-21T01:03:52;63151.25;;;11.18;100.00
6899;BME280;3488;42.616;23.350;2022-11-21T01:06:19;63148.66;;;11.16;100.00
6899;BME280;3488;42.616;23.350;2022-11-21T01:08:46;63160.09;;;11.29;100.00
6899;BME280;3488;42.616;23.350;2022-11-21T01:11:14;63156.94;;;11.24;100.00
6899;BME280;3488;42.616;23.350;2022-11-21T01:13:42;63163.16;;;11.30;100.00
6899;BME280;3488;42.616;23.350;2022-11-21T01:16:11;63177.09;;;11.41;100.00
6899;BME280;3488;42.616;23.350;2022-11-21T01:18:38;63203.56;;;11.69;100.00
6899;BME280;3488;42.616;23.350;2022-11-21T01:21:07;63200.50;;;11.69;100.00
6899;BME280;3488;42.616;23.350;2022-11-21T01:23:37;63198.84;;;11.62;100.00
6899;BME280;3488;42.616;23.350;2022-11-21T01:26:07;63184.81;;;11.46;100.00
6899;BME280;3488;42.616;23.350;2022-11-21T01:28:33;63170.91;;;11.37;100.00
6899;BME280;3488;42.616;23.350;2022-11-21T01:31:04;63148.22;;;11.20;100.00
6899;BME280;3488;42.616;23.350;2022-11-21T01:33:31;63157.94;;;11.22;100.00
6899;BME280;3488;42.616;23.350;2022-11-21T01:36:07;63161.09;;;11.28;100.00
6899;BME280;3488;42.616;23.350;2022-11-21T01:38:34;63145.03;;;11.12;100.00
6899;BME280;3488;42.616;23.350;2022-11-21T01:41:02;63140.88;;;11.08;100.00
6899;BME280;3488;42.616;23.350;2022-11-21T01:43:29;63144.97;;;11.10;100.00
6899;BME280;3488;42.616;23.350;2022-11-21T01:45:56;63112.41;;;10.81;100.00
6899;BME280;3488;42.616;23.350;2022-11-21T01:48:28;63113.47;;;10.82;100.00
6899;BME280;3488;42.616;23.350;2022-11-21T01:50:58;63102.53;;;10.69;100.00
6899;BME280;3488;42.616;23.350;2022-11-21T01:53:28;63089.13;;;10.58;100.00
6899;BME280;3488;42.616;23.350;2022-11-21T01:55:55;63086.53;;;10.56;100.00
6899;BME280;3488;42.616;23.350;2022-11-21T01:58:22;63099.50;;;10.68;100.00
6899;BME280;3488;42.616;23.350;2022-11-21T02:00:49;63102.03;;;10.68;100.00
6899;BME280;3488;42.616;23.350;2022-11-21T02:03:20;63103.63;;;10.72;100.00
6899;BME280;3488;42.616;23.350;2022-11-21T02:05:51;63103.09;;;10.72;100.00
6899;BME280;3488;42.616;23.350;2022-11-21T02:08:21;63081.94;;;10.54;100.00
6899;BME280;3488;42.616;23.350;2022-11-21T02:11:00;63094.28;;;10.63;100.00
6899;BME280;3488;42.616;23.350;2022-11-21T02:13:29;63094.28;;;10.63;100.00
6899;BME280;3488;42.616;23.350;2022-11-21T02:15:56;63087.53;;;10.54;100.00
6899;BME280;3488;42.616;23.350;2022-11-21T02:18:23;63079.78;;;10.46;100.00
6899;BME280;3488;42.616;23.350;2022-11-21T02:20:58;63082.44;;;10.54;100.00
6899;BME280;3488;42.616;23.350;2022-11-21T02:23:32;63080.84;;;10.50;100.00
6899;BME280;3488;42.616;23.350;2022-11-21T02:26:03;63083.91;;;10.51;100.00
6899;BME280;3488;42.616;23.350;2022-11-21T02:28:30;63092.19;;;10.59;100.00
6899;BME280;3488;42.616;23.350;2022-11-21T02:30:57;63062.78;;;10.35;100.00
6899;BME280;3488;42.616;23.350;2022-11-21T02:33:24;63066.41;;;10.38;100.00
6899;BME280;3488;42.616;23.350;2022-11-21T02:35:58;63075.13;;;10.42;100.00
6899;BME280;3488;42.616;23.350;2022-11-21T02:38:28;63071.97;;;10.36;100.00
6899;BME280;3488;42.616;23.350;2022-11-21T02:41:01;63064.25;;;10.31;100.00
6899;BME280;3488;42.616;23.350;2022-11-21T02:43:35;63092.25;;;10.61;100.00
6899;BME280;3488;42.616;23.350;2022-11-21T02:46:03;63096.28;;;10.60;100.00
6899;BME280;3488;42.616;23.350;2022-11-21T02:48:30;63090.16;;;10.59;100.00
6899;BME280;3488;42.616;23.350;2022-11-21T02:50:57;63094.81;;;10.64;100.00
6899;BME280;3488;42.616;23.350;2022-11-21T02:53:24;63090.13;;;10.57;100.00
6899;BME280;3488;42.616;23.350;2022-11-21T02:55:50;63068.91;;;10.36;100.00
6899;BME280;3488;42.616;23.350;2022-11-21T02:58:17;63086.00;;;10.53;100.00
6899;BME280;3488;42.616;23.350;2022-11-21T03:00:46;63083.94;;;10.53;100.00
6899;BME280;3488;42.616;23.350;2022-11-21T03:03:13;63081.41;;;10.53;100.00
6899;BME280;3488;42.616;23.350;2022-11-21T03:05:40;63073.06;;;10.42;100.00
6899;BME280;3488;42.616;23.350;2022-11-21T03:08:07;63069.94;;;10.37;100.00
6899;BME280;3488;42.616;23.350;2022-11-21T03:10:34;63031.16;;;10.02;100.00
6899;BME280;3488;42.616;23.350;2022-11-21T03:13:01;63068.38;;;10.35;100.00
6899;BME280;3488;42.616;23.350;2022-11-21T03:15:30;63067.91;;;10.37;100.00
6899;BME280;3488;42.616;23.350;2022-11-21T03:17:59;63065.84;;;10.35;100.00
6899;BME280;3488;42.616;23.350;2022-11-21T03:20:27;63076.13;;;10.40;100.00
6899;BME280;3488;42.616;23.350;2022-11-21T03:22:54;63073.59;;;10.43;100.00
6899;BME280;3488;42.616;23.350;2022-11-21T03:25:21;63070.50;;;10.40;100.00
6899;BME280;3488;42.616;23.350;2022-11-21T03:27:49;63081.38;;;10.51;100.00
6899;BME280;3488;42.616;23.350;2022-11-21T03:30:16;63069.44;;;10.39;100.00
6899;BME280;3488;42.616;23.350;2022-11-21T03:32:43;63061.66;;;10.29;100.00
6899;BME280;3488;42.616;23.350;2022-11-21T03:35:12;63065.81;;;10.33;100.00
6899;BME280;3488;42.616;23.350;2022-11-21T03:37:39;63072.00;;;10.39;100.00
6899;BME280;3488;42.616;23.350;2022-11-21T03:40:07;63067.41;;;10.37;100.00
6899;BME280;3488;42.616;23.350;2022-11-21T03:42:34;63091.25;;;10.63;100.00
6899;BME280;3488;42.616;23.350;2022-11-21T03:45:01;63137.72;;;11.03;100.00
6899;BME280;3488;42.616;23.350;2022-11-21T03:47:28;63122.28;;;10.93;100.00
6899;BME280;3488;42.616;23.350;2022-11-21T03:49:54;63124.28;;;10.90;100.00
6899;BME280;3488;42.616;23.350;2022-11-21T03:52:23;63123.34;;;10.94;100.00
6899;BME280;3488;42.616;23.350;2022-11-21T03:54:50;63162.13;;;11.29;100.00
6899;BME280;3488;42.616;23.350;2022-11-21T03:57:17;63174.00;;;11.38;100.00
6899;BME280;3488;42.616;23.350;2022-11-21T03:59:43;63184.38;;;11.50;100.00
6899;BME280;3488;42.616;23.350;2022-11-21T04:02:10;63182.31;;;11.48;100.00
6899;BME280;3488;42.616;23.350;2022-11-21T04:04:37;63202.03;;;11.68;100.00
6899;BME280;3488;42.616;23.350;2022-11-21T04:07:04;63189.59;;;11.58;100.00
6899;BME280;3488;42.616;23.350;2022-11-21T04:09:32;63175.06;;;11.41;100.00
6899;BME280;3488;42.616;23.350;2022-11-21T04:11:59;63180.16;;;11.41;100.00
6899;BME280;3488;42.616;23.350;2022-11-21T04:14:26;63180.72;;;11.44;100.00
6899;BME280;3488;42.616;23.350;2022-11-21T04:16:53;63211.31;;;11.74;100.00
6899;BME280;3488;42.616;23.350;2022-11-21T04:19:20;63210.78;;;11.74;100.00
6899;BME280;3488;42.616;23.350;2022-11-21T04:21:46;63215.47;;;11.81;100.00
6899;BME280;3488;42.616;23.350;2022-11-21T04:24:13;63250.16;;;12.12;100.00
6899;BME280;3488;42.616;23.350;2022-11-21T04:26:41;63262.03;;;12.21;100.00
6899;BME280;3488;42.616;23.350;2022-11-21T04:29:08;63262.66;;;12.29;100.00
6899;BME280;3488;42.616;23.350;2022-11-21T04:31:35;63272.47;;;12.33;100.00
6899;BME280;3488;42.616;23.350;2022-11-21T04:34:02;63281.22;;;12.39;100.00
6899;BME280;3488;42.616;23.350;2022-11-21T04:36:29;63277.16;;;12.40;100.00
6899;BME280;3488;42.616;23.350;2022-11-21T04:38:56;63291.09;;;12.51;100.00
6899;BME280;3488;42.616;23.350;2022-11-21T04:41:23;63288.53;;;12.49;99.65
6899;BME280;3488;42.616;23.350;2022-11-21T04:43:51;63301.47;;;12.61;100.00
6899;BME280;3488;42.616;23.350;2022-11-21T04:46:18;63277.19;;;12.43;100.00
6899;BME280;3488;42.616;23.350;2022-11-21T04:48:44;63283.91;;;12.49;100.00
6899;BME280;3488;42.616;23.350;2022-11-21T04:51:11;63262.09;;;12.23;100.00
6899;BME280;3488;42.616;23.350;2022-11-21T04:53:38;63245.56;;;12.12;100.00
6899;BME280;3488;42.616;23.350;2022-11-21T04:56:05;63240.88;;;12.05;100.00
6899;BME280;3488;42.616;23.350;2022-11-21T04:58:32;63236.22;;;12.01;100.00
6899;BME280;3488;42.616;23.350;2022-11-21T05:01:05;63220.16;;;11.85;100.00
6899;BME280;3488;42.616;23.350;2022-11-21T05:03:33;63202.94;;;11.63;100.00
6899;BME280;3488;42.616;23.350;2022-11-21T05:05:59;63202.63;;;11.73;100.00
6899;BME280;3488;42.616;23.350;2022-11-21T05:08:26;63215.44;;;11.78;100.00
6899;BME280;3488;42.616;23.350;2022-11-21T05:10:53;63188.53;;;11.54;100.00
6899;BME280;3488;42.616;23.350;2022-11-21T05:13:37;63182.28;;;11.46;100.00
6899;BME280;3488;42.616;23.350;2022-11-21T05:16:06;63169.38;;;11.36;100.00
6899;BME280;3488;42.616;23.350;2022-11-21T05:18:33;63094.81;;;10.64;100.00
6899;BME280;3488;42.616;23.350;2022-11-21T05:21:00;63103.19;;;10.77;100.00
6899;BME280;3488;42.616;23.350;2022-11-21T05:23:27;63113.47;;;10.82;100.00
6899;BME280;3488;42.616;23.350;2022-11-21T05:25:54;63104.66;;;10.73;100.00
6899;BME280;3488;42.616;23.350;2022-11-21T05:28:21;63099.44;;;10.66;100.00
6899;BME280;3488;42.616;23.350;2022-11-21T05:30:48;63090.66;;;10.60;100.00
6899;BME280;3488;42.616;23.350;2022-11-21T05:33:17;63083.47;;;10.55;100.00
6899;BME280;3488;42.616;23.350;2022-11-21T05:35:45;63093.28;;;10.62;100.00
6899;BME280;3488;42.616;23.350;2022-11-21T05:38:11;63075.16;;;10.44;100.00
6899;BME280;3488;42.616;23.350;2022-11-21T05:40:38;63077.75;;;10.47;100.00
6899;BME280;3488;42.616;23.350;2022-11-21T05:43:05;63083.94;;;10.53;100.00
6899;BME280;3488;42.616;23.350;2022-11-21T05:45:50;63090.13;;;10.57;100.00
6899;BME280;3488;42.616;23.350;2022-11-21T05:48:18;63103.13;;;10.74;100.00
6899;BME280;3488;42.616;23.350;2022-11-21T05:50:46;63111.41;;;10.82;100.00
6899;BME280;3488;42.616;23.350;2022-11-21T05:53:14;63111.38;;;10.80;100.00
6899;BME280;3488;42.616;23.350;2022-11-21T05:55:41;63111.41;;;10.82;100.00
6899;BME280;3488;42.616;23.350;2022-11-21T05:58:08;63106.72;;;10.75;100.00
6899;BME280;3488;42.616;23.350;2022-11-21T06:00:35;63135.22;;;11.05;100.00
6899;BME280;3488;42.616;23.350;2022-11-21T06:03:03;63147.03;;;11.09;100.00
6899;BME280;3488;42.616;23.350;2022-11-21T06:05:48;63142.41;;;11.07;100.00
6899;BME280;3488;42.616;23.350;2022-11-21T06:08:16;63132.56;;;10.98;100.00
6899;BME280;3488;42.616;23.350;2022-11-21T06:10:43;63134.63;;;11.00;100.00
6899;BME280;3488;42.616;23.350;2022-11-21T06:13:10;63126.38;;;10.94;100.00
6899;BME280;3488;42.616;23.350;2022-11-21T06:15:51;63091.75;;;10.63;100.00
6899;BME280;3488;42.616;23.350;2022-11-21T06:18:19;63062.72;;;10.32;100.00
6899;BME280;3488;42.616;23.350;2022-11-21T06:20:45;63070.44;;;10.37;100.00
6899;BME280;3488;42.616;23.350;2022-11-21T06:23:14;63062.25;;;10.34;100.00
6899;BME280;3488;42.616;23.350;2022-11-21T06:25:41;63026.53;;;10.00;100.00
6899;BME280;3488;42.616;23.350;2022-11-21T06:28:09;62983.53;;;9.53;100.00
6899;BME280;3488;42.616;23.350;2022-11-21T06:30:36;62982.50;;;9.52;100.00
6899;BME280;3488;42.616;23.350;2022-11-21T06:33:04;62991.81;;;9.61;100.00
6899;BME280;3488;42.616;23.350;2022-11-21T06:35:31;62959.28;;;9.32;100.00
6899;BME280;3488;42.616;23.350;2022-11-21T06:37:58;62955.66;;;9.28;100.00
6899;BME280;3488;42.616;23.350;2022-11-21T06:40:26;62926.22;;;9.00;100.00
6899;BME280;3488;42.616;23.350;2022-11-21T06:42:53;62908.16;;;8.85;100.00
6899;BME280;3488;42.616;23.350;2022-11-21T06:45:20;62893.16;;;8.68;100.00
6899;BME280;3488;42.616;23.350;2022-11-21T06:47:46;62883.38;;;8.61;100.00
6899;BME280;3488;42.616;23.350;2022-11-21T06:50:14;62855.84;;;8.27;100.00
6899;BME280;3488;42.616;23.350;2022-11-21T06:52:40;62834.72;;;8.08;100.00
6899;BME280;3488;42.616;23.350;2022-11-21T06:55:08;62817.19;;;7.94;100.00
6899;BME280;3488;42.616;23.350;2022-11-21T06:57:36;62805.41;;;7.87;100.00
6899;BME280;3488;42.616;23.350;2022-11-21T07:00:05;62784.16;;;7.62;100.00
6899;BME280;3488;42.616;23.350;2022-11-21T07:02:32;62746.53;;;7.28;100.00
6899;BME280;3488;42.616;23.350;2022-11-21T07:04:59;62722.81;;;7.04;100.00
6899;BME280;3488;42.616;23.350;2022-11-21T07:07:25;62644.41;;;6.28;100.00
6899;BME280;3488;42.616;23.350;2022-11-21T07:09:52;62648.50;;;6.30;100.00
6899;BME280;3488;42.616;23.350;2022-11-21T07:12:19;62666.06;;;6.49;100.00
6899;BME280;3488;42.616;23.350;2022-11-21T07:15:06;62648.50;;;6.30;100.00
6899;BME280;3488;42.616;23.350;2022-11-21T07:17:33;62631.94;;;6.11;100.00
6899;BME280;3488;42.616;23.350;2022-11-21T07:20:00;62614.59;;;6.02;100.00
6899;BME280;3488;42.616;23.350;2022-11-21T07:22:27;62631.94;;;6.11;100.00
6899;BME280;3488;42.616;23.350;2022-11-21T07:24:54;62625.81;;;6.08;100.00
6899;BME280;3488;42.616;23.350;2022-11-21T07:27:26;62611.41;;;5.94;100.00
6899;BME280;3488;42.616;23.350;2022-11-21T07:29:53;62611.34;;;5.91;100.00
6899;BME280;3488;42.616;23.350;2022-11-21T07:32:23;62621.72;;;6.04;100.00
6899;BME280;3488;42.616;23.350;2022-11-21T07:34:52;62610.41;;;5.95;100.00
6899;BME280;3488;42.616;23.350;2022-11-21T07:37:19;62581.53;;;5.67;100.00
6899;BME280;3488;42.616;23.350;2022-11-21T07:39:46;62590.34;;;5.78;100.00
6899;BME280;3488;42.616;23.350;2022-11-21T07:42:13;62600.50;;;5.80;100.00
6899;BME280;3488;42.616;23.350;2022-11-21T07:44:40;62600.59;;;5.83;100.00
6899;BME280;3488;42.616;23.350;2022-11-21T07:47:06;62576.91;;;5.62;100.00
6899;BME280;3488;42.616;23.350;2022-11-21T07:49:35;62553.72;;;5.40;100.00
6899;BME280;3488;42.616;23.350;2022-11-21T07:52:02;62535.13;;;5.19;100.00
6899;BME280;3488;42.616;23.350;2022-11-21T07:54:29;62510.44;;;4.95;100.00
6899;BME280;3488;42.616;23.350;2022-11-21T07:56:55;62499.56;;;4.82;100.00
6899;BME280;3488;42.616;23.350;2022-11-21T07:59:22;62516.59;;;5.01;100.00
6899;BME280;3488;42.616;23.350;2022-11-21T08:01:50;62511.91;;;4.94;100.00
6899;BME280;3488;42.616;23.350;2022-11-21T08:04:17;62512.94;;;4.95;100.00
6899;BME280;3488;42.616;23.350;2022-11-21T08:06:45;62515.41;;;4.93;100.00
6899;BME280;3488;42.616;23.350;2022-11-21T08:09:12;62486.13;;;4.66;100.00
6899;BME280;3488;42.616;23.350;2022-11-21T08:11:39;62472.31;;;4.58;100.00
6899;BME280;3488;42.616;23.350;2022-11-21T08:14:06;62472.31;;;4.58;100.00
6899;BME280;3488;42.616;23.350;2022-11-21T08:16:32;62469.13;;;4.50;100.00
6899;BME280;3488;42.616;23.350;2022-11-21T08:18:59;62454.81;;;4.41;100.00
6899;BME280;3488;42.616;23.350;2022-11-21T08:21:26;62452.75;;;4.39;100.00
6899;BME280;3488;42.616;23.350;2022-11-21T08:23:55;62480.50;;;4.63;100.00
6899;BME280;3488;42.616;23.350;2022-11-21T08:26:22;62454.81;;;4.41;100.00
6899;BME280;3488;42.616;23.350;2022-11-21T08:28:48;62480.06;;;4.65;100.00
6899;BME280;3488;42.616;23.350;2022-11-21T08:31:15;62496.00;;;4.81;100.00
6899;BME280;3488;42.616;23.350;2022-11-21T08:33:42;62523.25;;;5.05;100.00
6899;BME280;3488;42.616;23.350;2022-11-21T08:36:09;62528.44;;;5.13;100.00
6899;BME280;3488;42.616;23.350;2022-11-21T08:38:36;62534.56;;;5.16;100.00
6899;BME280;3488;42.616;23.350;2022-11-21T08:41:04;62525.81;;;5.08;100.00
6899;BME280;3488;42.616;23.350;2022-11-21T08:43:49;62530.56;;;5.17;100.00
6899;BME280;3488;42.616;23.350;2022-11-21T08:46:15;62541.31;;;5.25;100.00
6899;BME280;3488;42.616;23.350;2022-11-21T08:48:43;62533.06;;;5.17;100.00
6899;BME280;3488;42.616;23.350;2022-11-21T08:51:09;62521.69;;;5.04;100.00
6899;BME280;3488;42.616;23.350;2022-11-21T08:53:36;62535.63;;;5.20;100.00
6899;BME280;3488;42.616;23.350;2022-11-21T08:56:04;62559.28;;;5.40;100.00
6899;BME280;3488;42.616;23.350;2022-11-21T08:58:31;62568.63;;;5.52;100.00
6899;BME280;3488;42.616;23.350;2022-11-21T09:00:58;62546.47;;;5.30;100.00
6899;BME280;3488;42.616;23.350;2022-11-21T09:03:27;62560.41;;;5.46;100.00
6899;BME280;3488;42.616;23.350;2022-11-21T09:05:55;62572.22;;;5.55;100.00
6899;BME280;3488;42.616;23.350;2022-11-21T09:08:22;62581.47;;;5.64;100.00
6899;BME280;3488;42.616;23.350;2022-11-21T09:10:49;62555.72;;;5.39;100.00
6899;BME280;3488;42.616;23.350;2022-11-21T09:13:17;62543.41;;;5.30;100.00
6899;BME280;3488;42.616;23.350;2022-11-21T09:15:44;62561.97;;;5.48;100.00
6899;BME280;3488;42.616;23.350;2022-11-21T09:18:29;62556.81;;;5.43;100.00
6899;BME280;3488;42.616;23.350;2022-11-21T09:20:55;62555.16;;;5.36;100.00
6899;BME280;3488;42.616;23.350;2022-11-21T09:23:22;62547.03;;;5.33;100.00
6899;BME280;3488;42.616;23.350;2022-11-21T09:25:49;62553.66;;;5.37;100.00
6899;BME280;3488;42.616;23.350;2022-11-21T09:28:17;62560.41;;;5.46;100.00
6899;BME280;3488;42.616;23.350;2022-11-21T09:30:44;62564.56;;;5.50;100.00
6899;BME280;3488;42.616;23.350;2022-11-21T09:33:12;62574.28;;;5.57;100.00
6899;BME280;3488;42.616;23.350;2022-11-21T09:35:39;62584.06;;;5.67;100.00
6899;BME280;3488;42.616;23.350;2022-11-21T09:38:06;62597.97;;;5.80;100.00
6899;BME280;3488;42.616;23.350;2022-11-21T09:40:34;62606.75;;;5.89;100.00
6899;BME280;3488;42.616;23.350;2022-11-21T09:43:38;62609.34;;;5.92;100.00
6899;BME280;3488;42.616;23.350;2022-11-21T09:46:10;62601.19;;;5.88;100.00
6899;BME280;3488;42.616;23.350;2022-11-21T09:48:44;62617.00;;;5.97;100.00
6899;BME280;3488;42.616;23.350;2022-11-21T09:51:14;62592.31;;;5.75;100.00
6899;BME280;3488;42.616;23.350;2022-11-21T09:53:51;62604.69;;;5.87;100.00
6899;BME280;3488;42.616;23.350;2022-11-21T09:56:23;62615.47;;;5.95;100.00
6899;BME280;3488;42.616;23.350;2022-11-21T09:59:04;62606.75;;;5.89;100.00
6899;BME280;3488;42.616;23.350;2022-11-21T10:01:36;62581.06;;;5.69;100.00
6899;BME280;3488;42.616;23.350;2022-11-21T10:04:03;62585.59;;;5.68;100.00
6899;BME280;3488;42.616;23.350;2022-11-21T10:06:32;62590.13;;;5.68;100.00
6899;BME280;3488;42.616;23.350;2022-11-21T10:09:08;62573.78;;;5.57;100.00
6899;BME280;3488;42.616;23.350;2022-11-21T10:11:43;62582.53;;;5.65;100.00
6899;BME280;3488;42.616;23.350;2022-11-21T10:14:44;62546.56;;;5.35;100.00
6899;BME280;3488;42.616;23.350;2022-11-21T10:17:19;62530.97;;;5.13;100.00
6899;BME280;3488;42.616;23.350;2022-11-21T10:20:11;62496.47;;;4.79;100.00
6899;BME280;3488;42.616;23.350;2022-11-21T10:23:04;62492.50;;;4.83;100.00
6899;BME280;3488;42.616;23.350;2022-11-21T10:25:36;62468.25;;;4.56;100.00
6899;BME280;3488;42.616;23.350;2022-11-21T10:28:11;62455.84;;;4.42;100.00
6899;BME280;3488;42.616;23.350;2022-11-21T10:30:44;62454.88;;;4.43;100.00
6899;BME280;3488;42.616;23.350;2022-11-21T10:33:14;62476.44;;;4.62;100.00
6899;BME280;3488;42.616;23.350;2022-11-21T10:35:47;62486.84;;;4.77;100.00
6899;BME280;3488;42.616;23.350;2022-11-21T10:38:20;62498.94;;;4.77;100.00
6899;BME280;3488;42.616;23.350;2022-11-21T10:40:50;62492.41;;;4.78;100.00
6899;BME280;3488;42.616;23.350;2022-11-21T10:43:28;62500.63;;;4.86;100.00
6899;BME280;3488;42.616;23.350;2022-11-21T10:46:17;62501.78;;;4.92;100.00
6899;BME280;3488;42.616;23.350;2022-11-21T10:48:55;62514.03;;;4.99;100.00
6899;BME280;3488;42.616;23.350;2022-11-21T10:51:35;62522.72;;;5.05;100.00
6899;BME280;3488;42.616;23.350;2022-11-21T10:54:06;62523.81;;;5.08;100.00
6899;BME280;3488;42.616;23.350;2022-11-21T10:56:51;62515.50;;;4.98;100.00
6899;BME280;3488;42.616;23.350;2022-11-21T10:59:22;62521.19;;;5.03;100.00
6899;BME280;3488;42.616;23.350;2022-11-21T11:01:58;62541.84;;;5.26;100.00
6899;BME280;3488;42.616;23.350;2022-11-21T11:04:27;62548.00;;;5.32;100.00
6899;BME280;3488;42.616;23.350;2022-11-21T11:06:54;62553.16;;;5.37;100.00
6899;BME280;3488;42.616;23.350;2022-11-21T11:09:23;62557.34;;;5.43;100.00
6899;BME280;3488;42.616;23.350;2022-11-21T11:11:50;62542.28;;;5.24;100.00
6899;BME280;3488;42.616;23.350;2022-11-21T11:14:27;62531.13;;;5.20;100.00
6899;BME280;3488;42.616;23.350;2022-11-21T11:16:57;62534.63;;;5.19;100.00
6899;BME280;3488;42.616;23.350;2022-11-21T11:19:26;62529.41;;;5.11;100.00
6899;BME280;3488;42.616;23.350;2022-11-21T11:21:54;62506.31;;;4.91;100.00
6899;BME280;3488;42.616;23.350;2022-11-21T11:24:24;62503.31;;;4.93;100.00
6899;BME280;3488;42.616;23.350;2022-11-21T11:27:01;62537.25;;;5.24;100.00
6899;BME280;3488;42.616;23.350;2022-11-21T11:29:29;62542.38;;;5.29;100.00
6899;BME280;3488;42.616;23.350;2022-11-21T11:32:01;62562.94;;;5.46;100.00
6899;BME280;3488;42.616;23.350;2022-11-21T11:34:37;62551.16;;;5.37;100.00
6899;BME280;3488;42.616;23.350;2022-11-21T11:37:11;62555.78;;;5.42;100.00
6899;BME280;3488;42.616;23.350;2022-11-21T11:39:42;62557.34;;;5.43;100.00
6899;BME280;3488;42.616;23.350;2022-11-21T11:42:31;62567.13;;;5.53;100.00
6899;BME280;3488;42.616;23.350;2022-11-21T11:45:29;62560.38;;;5.44;100.00
6899;BME280;3488;42.616;23.350;2022-11-21T11:48:19;62554.03;;;5.30;100.00
6899;BME280;3488;42.616;23.350;2022-11-21T11:50:48;62537.75;;;5.24;100.00
6899;BME280;3488;42.616;23.350;2022-11-21T11:53:18;62549.09;;;5.35;100.00
6899;BME280;3488;42.616;23.350;2022-11-21T11:55:49;62561.91;;;5.45;100.00
6899;BME280;3488;42.616;23.350;2022-11-21T11:58:24;62552.22;;;5.41;100.00
6899;BME280;3488;42.616;23.350;2022-11-21T12:00:58;62545.00;;;5.34;100.00
6899;BME280;3488;42.616;23.350;2022-11-21T12:03:35;62560.38;;;5.44;100.00
6899;BME280;3488;42.616;23.350;2022-11-21T12:06:05;62563.00;;;5.49;100.00
6899;BME280;3488;42.616;23.350;2022-11-21T12:08:40;62560.88;;;5.44;100.00
6899;BME280;3488;42.616;23.350;2022-11-21T12:11:15;62575.84;;;5.59;100.00
6899;BME280;3488;42.616;23.350;2022-11-21T12:14:12;62599.47;;;5.79;100.00
6899;BME280;3488;42.616;23.350;2022-11-21T12:17:04;62587.25;;;5.75;100.00
6899;BME280;3488;42.616;23.350;2022-11-21T12:19:33;62599.03;;;5.81;100.00
6899;BME280;3488;42.616;23.350;2022-11-21T12:22:02;62589.75;;;5.72;100.00
6899;BME280;3488;42.616;23.350;2022-11-21T12:24:31;62577.41;;;5.63;100.00
6899;BME280;3488;42.616;23.350;2022-11-21T12:27:06;62575.84;;;5.59;100.00
6899;BME280;3488;42.616;23.350;2022-11-21T12:29:46;62578.97;;;5.64;100.00
6899;BME280;3488;42.616;23.350;2022-11-21T12:32:27;62584.09;;;5.69;100.00
6899;BME280;3488;42.616;23.350;2022-11-21T12:35:18;62571.69;;;5.55;100.00
6899;BME280;3488;42.616;23.350;2022-11-21T12:37:56;62588.13;;;5.68;100.00
6899;BME280;3488;42.616;23.350;2022-11-21T12:40:41;62589.16;;;5.69;100.00
6899;BME280;3488;42.616;23.350;2022-11-21T12:43:19;62590.34;;;5.78;100.00
6899;BME280;3488;42.616;23.350;2022-11-21T12:45:55;62596.91;;;5.77;100.00
6899;BME280;3488;42.616;23.350;2022-11-21T12:48:39;62590.72;;;5.71;100.00
6899;BME280;3488;42.616;23.350;2022-11-21T12:54:56;62584.59;;;5.67;100.00
6899;BME280;3488;42.616;23.350;2022-11-21T12:57:36;62563.94;;;5.45;100.00
6899;BME280;3488;42.616;23.350;2022-11-21T13:00:12;62545.44;;;5.29;100.00
6899;BME280;3488;42.616;23.350;2022-11-21T13:03:02;62555.31;;;5.44;100.00
6899;BME280;3488;42.616;23.350;2022-11-21T13:05:34;62542.38;;;5.29;100.00
6899;BME280;3488;42.616;23.350;2022-11-21T13:08:07;62531.63;;;5.21;100.00
6899;BME280;3488;42.616;23.350;2022-11-21T13:10:37;62534.56;;;5.16;100.00
6899;BME280;3488;42.616;23.350;2022-11-21T13:13:14;62548.00;;;5.32;100.00
6899;BME280;3488;42.616;23.350;2022-11-21T13:15:52;62564.94;;;5.46;100.00
6899;BME280;3488;42.616;23.350;2022-11-21T13:18:24;62542.44;;;5.31;100.00
6899;BME280;3488;42.616;23.350;2022-11-21T13:20:52;62556.75;;;5.40;100.00
6899;BME280;3488;42.616;23.350;2022-11-21T13:23:36;62572.22;;;5.55;100.00